createdAt,value
2022-12-09T00:00:10.622Z,9.07
2022-12-09T00:02:38.854Z,8.67
2022-12-09T00:05:07.572Z,8.23
2022-12-09T00:07:36.412Z,6.30
2022-12-09T00:10:06.738Z,7.17
2022-12-09T00:12:35.062Z,7.47
2022-12-09T00:15:02.964Z,7.93
2022-12-09T00:17:32.190Z,9.30
2022-12-09T00:20:00.265Z,9.00
2022-12-09T00:22:28.845Z,7.97
2022-12-09T00:24:56.789Z,10.67
2022-12-09T00:27:25.966Z,14.53
2022-12-09T00:29:53.994Z,19.93
2022-12-09T00:32:22.005Z,22.27
2022-12-09T00:34:49.947Z,17.23
2022-12-09T00:37:17.915Z,19.10
2022-12-09T00:39:45.934Z,17.37
2022-12-09T00:42:14.027Z,14.70
2022-12-09T00:44:43.208Z,13.43
2022-12-09T00:47:11.069Z,14.73
2022-12-09T00:49:39.019Z,14.13
2022-12-09T00:52:06.905Z,14.17
2022-12-09T00:54:34.859Z,13.57
2022-12-09T00:57:02.895Z,14.33
2022-12-09T00:59:30.827Z,16.17
2022-12-09T01:02:00.254Z,13.30
2022-12-09T01:04:28.436Z,16.00
2022-12-09T01:06:56.613Z,12.57
2022-12-09T01:09:24.629Z,10.17
2022-12-09T01:11:52.632Z,8.67
2022-12-09T01:14:20.440Z,8.07
2022-12-09T01:16:48.366Z,8.80
2022-12-09T01:19:17.822Z,8.80
2022-12-09T01:21:45.750Z,6.10
2022-12-09T01:24:14.846Z,8.77
2022-12-09T01:26:42.810Z,7.47
2022-12-09T01:29:10.962Z,10.03
2022-12-09T01:31:39.155Z,7.63
2022-12-09T01:34:07.006Z,9.70
2022-12-09T01:36:36.269Z,10.73
2022-12-09T01:39:04.295Z,7.60
2022-12-09T01:41:32.091Z,11.70
2022-12-09T01:44:15.759Z,10.37
2022-12-09T01:46:44.410Z,23.57
2022-12-09T01:49:16.058Z,21.63
2022-12-09T01:51:48.261Z,20.80
2022-12-09T01:54:16.934Z,22.17
2022-12-09T01:56:45.053Z,31.40
2022-12-09T01:59:16.504Z,25.07
2022-12-09T02:01:49.425Z,18.00
2022-12-09T02:04:17.903Z,17.20
2022-12-09T02:06:47.420Z,15.90
2022-12-09T02:09:15.358Z,14.37
2022-12-09T02:11:57.287Z,11.73
2022-12-09T02:14:30.856Z,14.33
2022-12-09T02:17:17.193Z,15.23
2022-12-09T02:19:54.047Z,11.73
2022-12-09T02:22:27.961Z,8.97
2022-12-09T02:25:00.142Z,12.27
2022-12-09T02:27:34.606Z,9.03
2022-12-09T02:30:12.304Z,10.90
2022-12-09T02:32:57.737Z,8.60
2022-12-09T02:35:33.085Z,13.30
2022-12-09T02:38:08.455Z,7.07
2022-12-09T02:40:43.762Z,7.80
2022-12-09T02:43:13.416Z,9.80
2022-12-09T02:45:44.074Z,9.77
2022-12-09T02:48:15.130Z,9.37
2022-12-09T02:50:46.387Z,10.67
2022-12-09T02:53:15.831Z,10.87
2022-12-09T02:55:46.125Z,11.13
2022-12-09T02:58:14.102Z,9.37
2022-12-09T03:00:42.669Z,10.37
2022-12-09T03:03:15.888Z,10.13
2022-12-09T03:05:52.994Z,11.57
2022-12-09T03:08:31.419Z,12.23
2022-12-09T03:11:01.796Z,10.87
2022-12-09T03:13:40.703Z,11.33
2022-12-09T03:16:15.300Z,12.07
2022-12-09T03:18:47.960Z,11.27
2022-12-09T03:21:22.706Z,8.90
2022-12-09T03:23:54.238Z,11.13
2022-12-09T03:26:26.351Z,13.33
2022-12-09T03:28:56.389Z,8.13
2022-12-09T03:31:28.185Z,10.10
2022-12-09T03:34:02.878Z,12.97
2022-12-09T03:36:36.155Z,11.53
2022-12-09T03:39:07.151Z,14.17
2022-12-09T03:41:35.672Z,11.73
2022-12-09T03:44:10.293Z,13.37
2022-12-09T03:46:38.664Z,12.63
2022-12-09T03:49:07.438Z,14.47
2022-12-09T03:51:41.080Z,13.47
2022-12-09T03:54:17.334Z,10.97
2022-12-09T03:56:48.734Z,11.93
2022-12-09T03:59:18.008Z,13.30
2022-12-09T04:01:47.153Z,11.57
2022-12-09T04:04:16.109Z,14.33
2022-12-09T04:06:45.535Z,12.07
2022-12-09T04:09:13.936Z,11.03
2022-12-09T04:11:41.832Z,14.37
2022-12-09T04:14:15.280Z,11.70
2022-12-09T04:16:43.648Z,10.10
2022-12-09T04:19:11.832Z,11.33
2022-12-09T04:21:39.881Z,10.40
2022-12-09T04:24:10.117Z,12.93
2022-12-09T04:26:39.028Z,10.40
2022-12-09T04:29:07.669Z,12.40
2022-12-09T04:31:35.892Z,12.80
2022-12-09T04:34:08.913Z,12.67
2022-12-09T04:36:37.425Z,10.97
2022-12-09T04:39:05.430Z,14.63
2022-12-09T04:41:34.694Z,10.17
2022-12-09T04:44:02.635Z,10.13
2022-12-09T04:46:30.486Z,10.50
2022-12-09T04:48:58.412Z,12.80
2022-12-09T04:51:26.166Z,10.87
2022-12-09T04:53:53.986Z,10.70
2022-12-09T04:56:22.522Z,12.50
2022-12-09T04:58:52.451Z,12.67
2022-12-09T05:01:28.478Z,13.77
2022-12-09T05:03:59.681Z,13.03
2022-12-09T05:06:28.355Z,12.50
2022-12-09T05:08:56.672Z,13.30
2022-12-09T05:11:25.033Z,12.63
2022-12-09T05:13:55.305Z,17.43
2022-12-09T05:16:24.032Z,15.00
2022-12-09T05:18:52.451Z,12.80
2022-12-09T05:21:21.914Z,13.23
2022-12-09T05:23:50.562Z,13.33
2022-12-09T05:26:20.706Z,17.40
2022-12-09T05:28:48.908Z,19.30
2022-12-09T05:31:20.057Z,12.00
2022-12-09T05:33:48.742Z,12.13
2022-12-09T05:36:19.056Z,12.57
2022-12-09T05:38:47.116Z,15.63
2022-12-09T05:41:15.341Z,13.43
2022-12-09T05:43:43.495Z,12.97
2022-12-09T05:46:12.296Z,11.93
2022-12-09T05:48:41.674Z,10.63
2022-12-09T05:51:13.109Z,12.93
2022-12-09T05:53:41.536Z,12.40
2022-12-09T05:56:09.823Z,14.47
2022-12-09T05:58:38.078Z,17.13
2022-12-09T06:01:07.114Z,16.33
2022-12-09T06:03:36.221Z,14.40
2022-12-09T06:06:08.555Z,16.73
2022-12-09T06:08:37.102Z,15.50
2022-12-09T06:11:05.757Z,11.83
2022-12-09T06:13:34.102Z,14.03
2022-12-09T06:16:04.714Z,12.47
2022-12-09T06:18:33.849Z,18.90
2022-12-09T06:21:08.232Z,16.00
2022-12-09T06:23:36.717Z,17.37
2022-12-09T06:26:05.681Z,14.73
2022-12-09T06:28:34.046Z,13.67
2022-12-09T06:31:02.075Z,11.33
2022-12-09T06:33:53.639Z,16.70
2022-12-09T06:36:19.766Z,13.03
2022-12-09T06:38:47.830Z,14.17
2022-12-09T06:41:17.120Z,15.30
2022-12-09T06:43:45.496Z,14.63
2022-12-09T06:46:15.455Z,12.87
2022-12-09T06:48:43.917Z,13.27
2022-12-09T06:51:12.248Z,15.37
2022-12-09T06:53:41.540Z,13.23
2022-12-09T06:56:12.317Z,16.47
2022-12-09T06:58:42.241Z,12.43
2022-12-09T07:01:13.819Z,13.07
2022-12-09T07:03:42.938Z,17.50
2022-12-09T07:06:21.926Z,20.10
2022-12-09T07:08:51.745Z,17.83
2022-12-09T07:11:20.124Z,14.03
2022-12-09T07:13:48.561Z,13.47
2022-12-09T07:16:16.579Z,12.60
2022-12-09T07:18:45.404Z,14.03
2022-12-09T07:21:16.875Z,15.10
2022-12-09T07:23:45.448Z,13.43
2022-12-09T07:26:15.730Z,16.13
2022-12-09T07:28:44.393Z,13.23
2022-12-09T07:31:19.568Z,12.40
2022-12-09T07:33:48.483Z,13.03
2022-12-09T07:36:21.070Z,13.60
2022-12-09T07:38:50.236Z,16.37
2022-12-09T07:41:19.843Z,14.27
2022-12-09T07:43:48.954Z,14.93
2022-12-09T07:46:19.124Z,13.87
2022-12-09T07:48:48.281Z,14.67
2022-12-09T07:51:17.031Z,16.73
2022-12-09T07:53:45.312Z,15.33
2022-12-09T07:56:15.711Z,17.97
2022-12-09T07:58:47.836Z,15.63
2022-12-09T08:01:19.697Z,15.43
2022-12-09T08:03:49.061Z,16.10
2022-12-09T08:06:19.768Z,15.00
2022-12-09T08:08:48.375Z,15.63
2022-12-09T08:11:18.735Z,15.73
2022-12-09T08:13:48.399Z,15.30
2022-12-09T08:16:19.855Z,15.77
2022-12-09T08:18:49.018Z,14.90
2022-12-09T08:21:19.625Z,15.23
2022-12-09T08:23:47.953Z,15.37
2022-12-09T08:26:17.752Z,13.10
2022-12-09T08:28:47.027Z,13.17
2022-12-09T08:31:17.748Z,14.50
2022-12-09T08:33:46.586Z,16.87
2022-12-09T08:36:16.611Z,13.83
2022-12-09T08:38:45.548Z,14.63
2022-12-09T08:41:15.568Z,14.80
2022-12-09T08:43:44.972Z,16.37
2022-12-09T08:46:15.441Z,14.33
2022-12-09T08:48:43.971Z,16.90
2022-12-09T08:51:13.245Z,13.80
2022-12-09T08:53:41.575Z,14.43
2022-12-09T08:56:11.850Z,22.33
2022-12-09T08:58:41.074Z,16.53
2022-12-09T09:01:14.954Z,73.70
2022-12-09T09:03:45.024Z,19.13
2022-12-09T09:06:14.298Z,30.10
2022-12-09T09:08:43.421Z,35.73
2022-12-09T09:11:12.390Z,22.13
2022-12-09T09:13:41.550Z,18.13
2022-12-09T09:16:12.426Z,17.97
2022-12-09T09:18:41.200Z,18.97
2022-12-09T09:21:12.484Z,16.70
2022-12-09T09:23:41.419Z,13.03
2022-12-09T09:26:10.972Z,13.67
2022-12-09T09:28:39.273Z,13.43
2022-12-09T09:31:10.100Z,13.63
2022-12-09T09:33:38.287Z,14.00
2022-12-09T09:36:10.625Z,16.27
2022-12-09T09:38:40.965Z,15.83
2022-12-09T09:41:26.334Z,14.00
2022-12-09T09:43:55.535Z,13.57
2022-12-09T09:46:32.552Z,16.27
2022-12-09T09:49:02.311Z,15.43
2022-12-09T09:51:33.015Z,15.27
2022-12-09T09:54:08.182Z,12.77
2022-12-09T09:56:41.156Z,14.03
2022-12-09T09:59:20.502Z,13.73
2022-12-09T10:01:56.015Z,14.60
2022-12-09T10:04:32.510Z,16.27
2022-12-09T10:07:08.667Z,16.27
2022-12-09T10:09:46.863Z,17.97
2022-12-09T10:12:24.508Z,14.43
2022-12-09T10:14:58.944Z,13.20
2022-12-09T10:17:30.282Z,13.07
2022-12-09T10:20:03.816Z,16.53
2022-12-09T10:22:42.475Z,14.80
2022-12-09T10:25:21.206Z,12.47
2022-12-09T10:27:54.734Z,15.63
2022-12-09T10:30:23.325Z,37.17
2022-12-09T10:32:51.658Z,15.73
2022-12-09T10:35:21.733Z,19.70
2022-12-09T10:37:52.513Z,27.73
2022-12-09T10:40:30.976Z,17.43
2022-12-09T10:43:17.691Z,19.40
2022-12-09T10:48:38.764Z,16.20
2022-12-09T10:51:14.136Z,13.47
2022-12-09T10:53:48.723Z,13.47
2022-12-09T10:56:23.697Z,14.63
2022-12-09T10:59:10.621Z,17.27
2022-12-09T11:01:50.687Z,13.47
2022-12-09T11:04:25.134Z,15.13
2022-12-09T11:06:59.324Z,13.07
2022-12-09T11:09:31.012Z,15.70
2022-12-09T11:12:01.199Z,12.13
2022-12-09T11:14:34.954Z,17.60
2022-12-09T11:17:14.546Z,13.93
2022-12-09T11:19:47.058Z,18.33
2022-12-09T11:22:38.287Z,15.03
2022-12-09T11:25:21.885Z,16.53
2022-12-09T11:27:54.563Z,17.57
2022-12-09T11:30:25.525Z,14.50
2022-12-09T11:32:58.712Z,18.97
2022-12-09T11:35:32.422Z,16.90
2022-12-09T11:38:04.229Z,16.63
2022-12-09T11:40:33.503Z,13.27
2022-12-09T11:43:03.405Z,14.97
2022-12-09T11:45:34.485Z,21.13
2022-12-09T11:48:31.954Z,14.43
2022-12-09T11:50:57.973Z,16.07
2022-12-09T11:53:29.414Z,18.37
2022-12-09T11:56:03.989Z,19.17
2022-12-09T11:58:39.882Z,28.37
2022-12-09T12:01:14.031Z,18.37
2022-12-09T12:03:47.781Z,18.30
2022-12-09T12:06:20.444Z,14.60
2022-12-09T12:08:52.596Z,14.27
2022-12-09T12:11:29.025Z,14.80
2022-12-09T12:14:04.877Z,16.30
2022-12-09T12:16:39.936Z,15.77
2022-12-09T12:19:16.362Z,17.50
2022-12-09T12:22:10.256Z,18.30
2022-12-09T12:25:03.972Z,16.70
2022-12-09T12:27:46.444Z,14.80
2022-12-09T12:30:19.251Z,15.40
2022-12-09T12:33:53.431Z,19.27
2022-12-09T12:36:11.320Z,17.67
2022-12-09T12:38:54.160Z,13.53
2022-12-09T12:41:29.909Z,24.17
2022-12-09T12:44:28.575Z,20.40
2022-12-09T12:47:05.865Z,15.70
2022-12-09T12:49:55.460Z,17.43
2022-12-09T12:52:55.503Z,20.07
2022-12-09T12:55:41.011Z,14.57
2022-12-09T12:58:15.347Z,16.70
2022-12-09T13:00:58.599Z,14.70
2022-12-09T13:03:35.041Z,18.13
2022-12-09T13:06:03.889Z,15.43
2022-12-09T13:08:38.169Z,14.00
2022-12-09T13:11:10.212Z,16.20
2022-12-09T13:13:43.167Z,15.93
2022-12-09T13:16:19.359Z,15.43
2022-12-09T13:18:50.242Z,15.60
2022-12-09T13:21:18.670Z,12.97
2022-12-09T13:23:59.653Z,13.17
2022-12-09T13:26:44.124Z,14.00
2022-12-09T13:29:25.879Z,15.37
2022-12-09T13:32:00.154Z,16.33
2022-12-09T13:34:37.713Z,17.97
2022-12-09T13:37:06.081Z,17.33
2022-12-09T13:39:56.588Z,16.07
2022-12-09T13:43:01.411Z,16.10
2022-12-09T13:45:35.226Z,16.07
2022-12-09T13:48:28.830Z,17.33
2022-12-09T13:51:00.143Z,22.60
2022-12-09T13:53:33.654Z,18.67
2022-12-09T13:56:04.132Z,23.30
2022-12-09T13:58:56.686Z,17.53
2022-12-09T14:01:31.159Z,17.80
2022-12-09T14:04:07.852Z,19.37
2022-12-09T14:06:48.941Z,18.63
2022-12-09T14:09:28.498Z,16.10
2022-12-09T14:12:00.175Z,18.43
2022-12-09T14:14:58.898Z,15.73
2022-12-09T14:18:04.108Z,18.17
2022-12-09T14:20:38.980Z,18.40
2022-12-09T14:23:17.816Z,19.70
2022-12-09T14:25:55.714Z,17.10
2022-12-09T14:28:40.584Z,18.43
2022-12-09T14:31:09.344Z,21.67
2022-12-09T14:33:39.284Z,17.20
2022-12-09T14:36:20.679Z,17.63
2022-12-09T14:41:50.810Z,18.37
2022-12-09T14:44:27.121Z,17.23
2022-12-09T14:47:15.100Z,17.47
2022-12-09T14:49:49.161Z,20.77
2022-12-09T14:52:24.648Z,18.80
2022-12-09T14:54:55.502Z,16.30
2022-12-09T14:57:27.094Z,24.30
2022-12-09T14:59:57.137Z,22.93
2022-12-09T15:06:02.985Z,19.87
2022-12-09T15:08:33.400Z,16.43
2022-12-09T15:11:06.887Z,16.07
2022-12-09T15:13:37.332Z,18.20
2022-12-09T15:16:09.747Z,17.33
2022-12-09T15:18:40.182Z,17.77
2022-12-09T15:21:08.611Z,16.97
2022-12-09T15:23:39.006Z,20.07
2022-12-09T15:26:19.400Z,17.90
2022-12-09T15:28:50.149Z,20.00
2022-12-09T15:31:21.401Z,20.83
2022-12-09T15:33:50.471Z,20.43
2022-12-09T15:36:23.269Z,19.07
2022-12-09T15:38:54.584Z,18.20
2022-12-09T15:41:43.098Z,19.43
2022-12-09T15:44:14.423Z,18.03
2022-12-09T15:46:44.819Z,23.30
2022-12-09T15:49:17.458Z,17.00
2022-12-09T15:51:47.486Z,16.77
2022-12-09T15:54:20.367Z,21.00
2022-12-09T15:56:54.978Z,17.83
2022-12-09T15:59:28.413Z,18.70
2022-12-09T16:01:59.346Z,15.17
2022-12-09T16:04:30.694Z,15.80
2022-12-09T16:07:05.856Z,18.03
2022-12-09T16:09:33.716Z,17.03
2022-12-09T16:12:03.008Z,20.43
2022-12-09T16:14:43.810Z,17.23
2022-12-09T16:17:22.223Z,18.37
2022-12-09T16:19:50.120Z,18.33
2022-12-09T16:22:22.512Z,24.77
2022-12-09T16:27:46.177Z,24.93
2022-12-09T16:30:16.486Z,24.03
2022-12-09T16:32:46.219Z,23.23
2022-12-09T16:35:21.419Z,26.40
2022-12-09T16:38:17.251Z,28.77
2022-12-09T16:41:10.727Z,24.27
2022-12-09T16:43:57.440Z,24.63
2022-12-09T16:46:37.284Z,27.80
2022-12-09T16:49:05.367Z,25.60
2022-12-09T16:51:33.726Z,24.07
2022-12-09T16:54:02.151Z,27.23
2022-12-09T16:56:31.479Z,22.13
2022-12-09T16:59:00.747Z,21.80
2022-12-09T17:01:33.799Z,26.87
2022-12-09T17:04:05.154Z,20.37
2022-12-09T17:06:33.391Z,26.03
2022-12-09T17:09:01.224Z,22.60
2022-12-09T17:11:29.064Z,20.23
2022-12-09T17:13:56.943Z,22.83
2022-12-09T17:16:26.814Z,23.13
2022-12-09T17:18:54.910Z,19.53
2022-12-09T17:21:22.804Z,23.50
2022-12-09T17:23:50.810Z,19.97
2022-12-09T17:26:20.342Z,24.13
2022-12-09T17:28:49.179Z,21.30
2022-12-09T17:31:19.593Z,19.90
2022-12-09T17:33:49.122Z,20.80
2022-12-09T17:36:18.653Z,19.40
2022-12-09T17:38:46.540Z,20.87
2022-12-09T17:41:19.016Z,20.83
2022-12-09T17:43:47.242Z,24.90
2022-12-09T17:46:15.954Z,20.20
2022-12-09T17:48:43.841Z,24.60
2022-12-09T17:51:14.831Z,26.93
2022-12-09T17:53:43.603Z,32.13
2022-12-09T17:56:13.754Z,27.33
2022-12-09T17:58:42.026Z,25.30
2022-12-09T18:01:14.806Z,22.07
2022-12-09T18:04:01.588Z,25.73
2022-12-09T18:06:34.327Z,25.60
2022-12-09T18:09:03.190Z,30.17
2022-12-09T18:11:31.083Z,28.50
2022-12-09T18:13:59.170Z,23.47
2022-12-09T18:16:27.344Z,22.80
2022-12-09T18:18:55.278Z,27.20
2022-12-09T18:21:23.712Z,24.27
2022-12-09T18:23:52.911Z,29.20
2022-12-09T18:26:23.528Z,28.23
2022-12-09T18:28:56.336Z,24.20
2022-12-09T18:31:25.541Z,20.93
2022-12-09T18:33:53.603Z,33.17
2022-12-09T18:36:23.622Z,25.93
2022-12-09T18:38:53.808Z,22.23
2022-12-09T18:41:23.936Z,23.40
2022-12-09T18:43:54.004Z,24.33
2022-12-09T18:46:25.783Z,24.40
2022-12-09T18:48:57.543Z,27.93
2022-12-09T18:51:25.962Z,29.10
2022-12-09T18:53:55.667Z,26.50
2022-12-09T18:56:23.469Z,23.60
2022-12-09T18:59:06.396Z,29.53
2022-12-09T19:01:38.712Z,26.90
2022-12-09T19:04:11.479Z,26.20
2022-12-09T19:06:41.270Z,23.40
2022-12-09T19:09:12.107Z,27.80
2022-12-09T19:11:41.501Z,23.93
2022-12-09T19:14:09.993Z,27.03
2022-12-09T19:16:38.413Z,25.43
2022-12-09T19:19:09.936Z,25.73
2022-12-09T19:21:39.210Z,28.23
2022-12-09T19:24:08.165Z,27.30
2022-12-09T19:26:37.883Z,31.87
2022-12-09T19:29:08.615Z,46.23
2022-12-09T19:31:38.063Z,43.57
2022-12-09T19:34:08.396Z,29.23
2022-12-09T19:36:36.607Z,25.30
2022-12-09T19:39:08.195Z,37.17
2022-12-09T19:41:38.366Z,32.67
2022-12-09T19:44:06.895Z,28.63
2022-12-09T19:46:35.300Z,30.33
2022-12-09T19:49:03.597Z,26.93
2022-12-09T19:51:32.156Z,24.20
2022-12-09T19:54:01.735Z,25.73
2022-12-09T19:56:29.935Z,24.67
2022-12-09T19:59:00.067Z,26.03
2022-12-09T20:01:29.761Z,23.70
2022-12-09T20:04:08.824Z,28.13
2022-12-09T20:06:47.501Z,28.73
2022-12-09T20:09:19.240Z,22.43
2022-12-09T20:11:47.061Z,23.50
2022-12-09T20:14:16.280Z,22.87
2022-12-09T20:16:44.127Z,25.03
2022-12-09T20:19:12.083Z,24.03
2022-12-09T20:21:40.568Z,24.37
2022-12-09T20:24:10.291Z,23.07
2022-12-09T20:26:39.226Z,23.47
2022-12-09T20:29:10.468Z,28.10
2022-12-09T20:31:40.588Z,19.90
2022-12-09T20:34:12.671Z,19.27
2022-12-09T20:36:42.932Z,22.20
2022-12-09T20:39:15.132Z,23.10
2022-12-09T20:41:44.415Z,28.27
2022-12-09T20:44:13.426Z,31.30
2022-12-09T20:46:46.791Z,26.07
2022-12-09T20:49:14.643Z,24.77
2022-12-09T20:51:45.180Z,24.90
2022-12-09T20:54:13.676Z,26.43
2022-12-09T20:56:41.987Z,27.73
2022-12-09T20:59:11.156Z,39.03
2022-12-09T21:01:39.737Z,28.27
2022-12-09T21:04:09.083Z,31.80
2022-12-09T21:06:38.636Z,25.03
2022-12-09T21:09:08.443Z,22.87
2022-12-09T21:11:36.689Z,23.93
2022-12-09T21:14:07.091Z,24.13
2022-12-09T21:16:36.613Z,26.03
2022-12-09T21:19:07.306Z,24.70
2022-12-09T21:21:37.682Z,25.53
2022-12-09T21:24:06.468Z,25.73
2022-12-09T21:26:34.306Z,24.23
2022-12-09T21:29:02.744Z,23.17
2022-12-09T21:31:32.591Z,24.50
2022-12-09T21:34:03.455Z,26.20
2022-12-09T21:36:33.290Z,23.90
2022-12-09T21:39:03.109Z,24.83
2022-12-09T21:41:33.580Z,20.47
2022-12-09T21:44:01.925Z,28.83
2022-12-09T21:46:31.998Z,24.97
2022-12-09T21:49:04.050Z,24.57
2022-12-09T21:51:32.524Z,24.07
2022-12-09T21:54:02.299Z,26.00
2022-12-09T21:56:32.655Z,26.10
2022-12-09T21:59:01.094Z,24.03
2022-12-09T22:01:31.051Z,30.87
2022-12-09T22:04:00.363Z,24.47
2022-12-09T22:06:28.547Z,28.77
2022-12-09T22:08:56.668Z,23.37
2022-12-09T22:11:27.781Z,30.03
2022-12-09T22:13:57.496Z,24.57
2022-12-09T22:16:28.209Z,23.20
2022-12-09T22:18:58.330Z,25.97
2022-12-09T22:21:28.649Z,24.37
2022-12-09T22:23:59.459Z,26.00
2022-12-09T22:26:29.549Z,22.73
2022-12-09T22:28:59.414Z,27.63
2022-12-09T22:31:29.099Z,23.13
2022-12-09T22:34:00.600Z,25.83
2022-12-09T22:36:29.127Z,26.57
2022-12-09T22:38:57.077Z,29.27
2022-12-09T22:41:27.009Z,26.30
2022-12-09T22:43:57.030Z,26.33
2022-12-09T22:46:27.579Z,27.60
2022-12-09T22:48:56.715Z,26.03
2022-12-09T22:51:26.390Z,29.33
2022-12-09T22:53:55.582Z,27.73
2022-12-09T22:56:24.185Z,28.43
2022-12-09T22:58:52.725Z,35.70
2022-12-09T23:01:23.677Z,34.23
2022-12-09T23:03:51.554Z,33.67
2022-12-09T23:06:19.785Z,51.80
2022-12-09T23:08:47.898Z,40.90
2022-12-09T23:11:18.324Z,36.60
2022-12-09T23:13:46.823Z,24.93
2022-12-09T23:16:17.314Z,28.10
2022-12-09T23:18:46.895Z,22.83
2022-12-09T23:21:20.450Z,29.37
2022-12-09T23:23:48.607Z,28.33
2022-12-09T23:26:18.008Z,22.83
2022-12-09T23:28:47.411Z,27.67
2022-12-09T23:31:17.783Z,22.70
2022-12-09T23:33:48.325Z,26.40
2022-12-09T23:36:18.996Z,24.00
2022-12-09T23:38:48.216Z,22.23
2022-12-09T23:41:18.323Z,25.63
2022-12-09T23:43:47.573Z,29.53
2022-12-09T23:46:17.705Z,25.57
2022-12-09T23:48:49.332Z,25.50
2022-12-09T23:51:19.543Z,25.47
2022-12-09T23:53:49.380Z,26.03
2022-12-09T23:56:19.339Z,25.47
2022-12-09T23:58:48.178Z,27.03
